createdAt,value
2023-09-28T00:00:13.206Z,0.00
2023-09-28T00:01:13.900Z,0.00
2023-09-28T00:02:13.570Z,0.00
2023-09-28T00:03:13.504Z,0.00
2023-09-28T00:04:13.751Z,0.00
2023-09-28T00:05:13.630Z,0.00
2023-09-28T00:06:13.633Z,0.00
2023-09-28T00:07:13.971Z,0.00
2023-09-28T00:08:12.999Z,0.00
2023-09-28T00:09:13.214Z,0.00
2023-09-28T00:10:13.280Z,0.00
2023-09-28T00:11:13.592Z,0.00
2023-09-28T00:12:13.648Z,0.00
2023-09-28T00:13:13.662Z,0.00
2023-09-28T00:14:13.548Z,0.00
2023-09-28T00:15:13.563Z,0.00
2023-09-28T00:16:13.675Z,0.00
2023-09-28T00:17:13.638Z,0.00
2023-09-28T00:18:13.878Z,0.00
2023-09-28T00:19:13.027Z,0.00
2023-09-28T00:20:13.143Z,0.00
2023-09-28T00:21:13.307Z,0.00
2023-09-28T00:22:13.318Z,0.00
2023-09-28T00:23:13.339Z,0.00
2023-09-28T00:24:13.755Z,0.00
2023-09-28T00:25:13.751Z,0.00
2023-09-28T00:26:13.871Z,0.00
2023-09-28T00:27:12.956Z,0.00
2023-09-28T00:28:18.140Z,0.00
2023-09-28T00:29:12.971Z,0.00
2023-09-28T00:30:13.119Z,0.00
2023-09-28T00:31:13.180Z,0.00
2023-09-28T00:32:13.114Z,0.00
2023-09-28T00:33:13.294Z,0.00
2023-09-28T00:34:13.152Z,0.00
2023-09-28T00:35:13.300Z,0.00
2023-09-28T00:36:13.537Z,0.00
2023-09-28T00:37:13.537Z,0.00
2023-09-28T00:38:13.528Z,0.00
2023-09-28T00:39:13.363Z,0.00
2023-09-28T00:40:13.355Z,0.00
2023-09-28T00:41:13.323Z,0.00
2023-09-28T00:42:13.377Z,0.00
2023-09-28T00:43:13.294Z,0.00
2023-09-28T00:44:13.048Z,0.00
2023-09-28T00:45:13.091Z,0.00
2023-09-28T00:46:13.071Z,0.00
2023-09-28T00:47:13.163Z,0.00
2023-09-28T00:48:13.104Z,0.00
2023-09-28T00:49:13.017Z,0.00
2023-09-28T00:50:12.945Z,0.00
2023-09-28T00:51:12.927Z,0.00
2023-09-28T00:52:12.982Z,0.00
2023-09-28T00:53:13.081Z,0.00
2023-09-28T00:54:13.144Z,0.00
2023-09-28T00:55:13.025Z,0.00
2023-09-28T00:56:13.168Z,0.00
2023-09-28T00:57:13.081Z,0.00
2023-09-28T00:58:13.075Z,0.00
2023-09-28T00:59:12.905Z,0.00
2023-09-28T01:00:49.760Z,0.00
2023-09-28T01:01:01.749Z,0.00
2023-09-28T01:01:13.887Z,0.00
2023-09-28T01:02:12.870Z,0.00
2023-09-28T01:03:13.182Z,0.00
2023-09-28T01:04:13.540Z,0.00
2023-09-28T01:05:13.687Z,0.00
2023-09-28T01:06:13.483Z,0.00
2023-09-28T01:07:13.490Z,0.00
2023-09-28T01:08:13.754Z,0.00
2023-09-28T01:09:13.713Z,0.00
2023-09-28T01:10:14.113Z,0.00
2023-09-28T01:11:13.092Z,0.00
2023-09-28T01:12:13.431Z,0.00
2023-09-28T01:13:14.107Z,0.00
2023-09-28T01:14:13.661Z,0.00
2023-09-28T01:15:13.685Z,0.00
2023-09-28T01:16:13.988Z,0.00
2023-09-28T01:17:13.008Z,0.00
2023-09-28T01:18:12.908Z,0.00
2023-09-28T01:19:13.225Z,0.00
2023-09-28T01:20:13.223Z,0.00
2023-09-28T01:21:12.971Z,0.00
2023-09-28T01:22:13.117Z,0.00
2023-09-28T01:23:13.526Z,0.00
2023-09-28T01:24:13.957Z,0.00
2023-09-28T01:25:12.901Z,0.00
2023-09-28T01:26:13.032Z,0.00
2023-09-28T01:27:13.010Z,0.00
2023-09-28T01:28:12.995Z,0.00
2023-09-28T01:29:12.938Z,0.00
2023-09-28T01:30:13.100Z,0.00
2023-09-28T01:31:13.194Z,0.00
2023-09-28T01:32:13.262Z,0.00
2023-09-28T01:33:14.650Z,0.00
2023-09-28T01:34:13.501Z,0.00
2023-09-28T01:35:13.507Z,0.00
2023-09-28T01:36:13.581Z,0.00
2023-09-28T01:37:13.487Z,0.00
2023-09-28T01:38:13.456Z,0.00
2023-09-28T01:39:13.242Z,0.00
2023-09-28T01:40:13.096Z,0.00
2023-09-28T01:41:13.242Z,0.00
2023-09-28T01:42:13.246Z,0.00
2023-09-28T01:43:13.082Z,0.00
2023-09-28T01:44:12.914Z,0.00
2023-09-28T01:45:12.747Z,0.00
2023-09-28T01:46:13.982Z,0.00
2023-09-28T01:47:13.417Z,0.00
2023-09-28T01:48:13.420Z,0.00
2023-09-28T01:49:13.535Z,0.00
2023-09-28T01:50:13.563Z,0.00
2023-09-28T01:51:13.926Z,0.00
2023-09-28T01:52:13.079Z,0.00
2023-09-28T01:53:13.256Z,0.00
2023-09-28T01:54:13.110Z,0.00
2023-09-28T01:55:13.018Z,0.00
2023-09-28T01:56:12.900Z,0.00
2023-09-28T01:57:12.898Z,0.00
2023-09-28T01:58:13.091Z,0.00
2023-09-28T01:59:13.379Z,0.00
2023-09-28T02:00:13.571Z,0.00
2023-09-28T02:01:13.713Z,0.00
2023-09-28T02:02:13.946Z,0.00
2023-09-28T02:03:13.232Z,0.00
2023-09-28T02:04:13.237Z,0.00
2023-09-28T02:05:13.579Z,0.00
2023-09-28T02:06:13.599Z,0.00
2023-09-28T02:07:13.603Z,0.00
2023-09-28T02:08:13.556Z,0.00
2023-09-28T02:09:13.443Z,0.00
2023-09-28T02:10:13.560Z,0.00
2023-09-28T02:11:13.692Z,0.00
2023-09-28T02:12:13.492Z,0.00
2023-09-28T02:13:13.502Z,0.00
2023-09-28T02:14:13.517Z,0.00
2023-09-28T02:15:13.409Z,0.00
2023-09-28T02:16:13.510Z,0.00
2023-09-28T02:17:13.557Z,0.00
2023-09-28T02:18:13.419Z,0.00
2023-09-28T02:19:13.614Z,0.00
2023-09-28T02:20:13.638Z,0.00
2023-09-28T02:21:13.793Z,0.00
2023-09-28T02:22:14.005Z,0.00
2023-09-28T02:23:13.215Z,0.00
2023-09-28T02:24:13.281Z,0.00
2023-09-28T02:25:13.642Z,0.00
2023-09-28T02:26:13.720Z,0.00
2023-09-28T02:27:13.640Z,0.00
2023-09-28T02:28:13.526Z,0.00
2023-09-28T02:29:13.466Z,0.00
2023-09-28T02:30:13.288Z,0.00
2023-09-28T02:31:13.293Z,0.00
2023-09-28T02:32:13.496Z,0.00
2023-09-28T02:33:13.849Z,0.00
2023-09-28T02:34:13.855Z,0.00
2023-09-28T02:35:14.000Z,0.00
2023-09-28T02:36:13.103Z,0.00
2023-09-28T02:37:13.020Z,0.00
2023-09-28T02:38:13.304Z,0.00
2023-09-28T02:39:13.238Z,0.00
2023-09-28T02:40:13.315Z,0.00
2023-09-28T02:41:13.267Z,0.00
2023-09-28T02:42:13.552Z,0.00
2023-09-28T02:43:13.617Z,0.00
2023-09-28T02:44:13.731Z,0.00
2023-09-28T02:45:13.688Z,0.00
2023-09-28T02:46:13.567Z,0.00
2023-09-28T02:47:13.504Z,0.00
2023-09-28T02:48:13.438Z,0.00
2023-09-28T02:49:13.595Z,0.00
2023-09-28T02:50:13.700Z,0.00
2023-09-28T02:51:13.674Z,0.00
2023-09-28T02:52:13.636Z,0.00
2023-09-28T02:53:13.607Z,0.00
2023-09-28T02:54:13.763Z,0.00
2023-09-28T02:55:13.631Z,0.00
2023-09-28T02:56:13.726Z,0.00
2023-09-28T02:57:13.778Z,0.00
2023-09-28T02:58:13.930Z,0.00
2023-09-28T02:59:12.867Z,0.00
2023-09-28T03:00:15.011Z,0.00
2023-09-28T03:01:13.086Z,0.00
2023-09-28T03:02:13.096Z,0.00
2023-09-28T03:03:13.107Z,0.00
2023-09-28T03:04:13.121Z,0.00
2023-09-28T03:05:13.224Z,0.00
2023-09-28T03:06:18.164Z,0.00
2023-09-28T03:07:13.231Z,0.00
2023-09-28T03:08:13.421Z,0.00
2023-09-28T03:09:13.498Z,0.00
2023-09-28T03:10:13.522Z,0.00
2023-09-28T03:11:13.627Z,0.00
2023-09-28T03:12:13.818Z,0.00
2023-09-28T03:13:13.135Z,0.00
2023-09-28T03:14:13.101Z,0.00
2023-09-28T03:15:13.352Z,0.00
2023-09-28T03:16:13.271Z,0.00
2023-09-28T03:17:13.367Z,0.00
2023-09-28T03:18:13.230Z,0.00
2023-09-28T03:19:13.104Z,0.00
2023-09-28T03:20:13.208Z,0.00
2023-09-28T03:21:13.561Z,0.00
2023-09-28T03:22:13.909Z,0.00
2023-09-28T03:23:13.144Z,0.00
2023-09-28T03:24:13.142Z,0.00
2023-09-28T03:25:13.272Z,0.00
2023-09-28T03:26:13.245Z,0.00
2023-09-28T03:27:13.752Z,0.00
2023-09-28T03:28:13.607Z,0.00
2023-09-28T03:29:13.647Z,0.00
2023-09-28T03:30:13.556Z,0.00
2023-09-28T03:31:13.574Z,0.00
2023-09-28T03:32:13.568Z,0.00
2023-09-28T03:33:13.571Z,0.00
2023-09-28T03:34:13.697Z,0.00
2023-09-28T03:35:13.780Z,0.00
2023-09-28T03:36:13.042Z,0.00
2023-09-28T03:37:13.254Z,0.00
2023-09-28T03:38:13.328Z,0.00
2023-09-28T03:39:13.541Z,0.00
2023-09-28T03:40:13.722Z,0.00
2023-09-28T03:41:13.944Z,0.00
2023-09-28T03:42:13.002Z,0.00
2023-09-28T03:43:13.132Z,0.00
2023-09-28T03:44:13.098Z,0.00
2023-09-28T03:45:13.033Z,0.00
2023-09-28T03:46:13.082Z,0.00
2023-09-28T03:47:13.205Z,0.00
2023-09-28T03:48:13.335Z,0.00
2023-09-28T03:49:13.285Z,0.00
2023-09-28T03:50:13.092Z,0.00
2023-09-28T03:51:12.921Z,0.00
2023-09-28T03:52:12.872Z,0.00
2023-09-28T03:53:13.152Z,0.00
2023-09-28T03:54:13.459Z,0.00
2023-09-28T03:55:13.386Z,0.00
2023-09-28T03:56:13.303Z,0.00
2023-09-28T03:57:13.341Z,0.00
2023-09-28T03:58:13.349Z,0.00
2023-09-28T03:59:13.516Z,0.00
2023-09-28T04:00:13.967Z,0.00
2023-09-28T04:01:12.983Z,0.00
2023-09-28T04:02:12.799Z,0.00
2023-09-28T04:03:13.876Z,0.00
2023-09-28T04:04:14.003Z,0.00
2023-09-28T04:05:13.125Z,0.00
2023-09-28T04:06:13.238Z,0.00
2023-09-28T04:07:13.025Z,0.00
2023-09-28T04:08:13.225Z,0.00
2023-09-28T04:09:13.203Z,0.00
2023-09-28T04:10:13.289Z,0.00
2023-09-28T04:11:13.514Z,0.00
2023-09-28T04:12:13.354Z,0.00
2023-09-28T04:13:13.343Z,0.00
2023-09-28T04:14:13.697Z,0.00
2023-09-28T04:15:13.905Z,0.00
2023-09-28T04:16:13.026Z,0.00
2023-09-28T04:17:13.905Z,0.00
2023-09-28T04:18:13.844Z,0.00
2023-09-28T04:19:14.067Z,0.00
2023-09-28T04:20:13.088Z,0.00
2023-09-28T04:21:13.213Z,0.00
2023-09-28T04:22:13.291Z,0.00
2023-09-28T04:23:13.235Z,0.00
2023-09-28T04:24:13.080Z,0.00
2023-09-28T04:25:12.844Z,0.00
2023-09-28T04:26:13.950Z,0.00
2023-09-28T04:27:12.875Z,0.00
2023-09-28T04:28:14.001Z,0.00
2023-09-28T04:29:12.904Z,0.00
2023-09-28T04:30:12.654Z,0.00
2023-09-28T04:31:14.119Z,0.00
2023-09-28T04:32:13.065Z,0.00
2023-09-28T04:33:13.005Z,0.00
2023-09-28T04:34:12.767Z,0.00
2023-09-28T04:35:13.843Z,0.00
2023-09-28T04:36:14.266Z,0.00
2023-09-28T04:37:13.511Z,0.00
2023-09-28T04:38:13.397Z,0.00
2023-09-28T04:39:13.310Z,0.00
2023-09-28T04:40:13.300Z,0.00
2023-09-28T04:41:13.205Z,0.00
2023-09-28T04:42:16.037Z,0.00
2023-09-28T04:43:13.467Z,0.00
2023-09-28T04:44:13.590Z,0.00
2023-09-28T04:45:13.588Z,0.00
2023-09-28T04:46:13.556Z,0.00
2023-09-28T04:47:13.513Z,0.00
2023-09-28T04:48:13.489Z,0.00
2023-09-28T04:49:13.364Z,0.00
2023-09-28T04:50:13.434Z,0.00
2023-09-28T04:51:13.632Z,0.00
2023-09-28T04:52:13.467Z,0.00
2023-09-28T04:53:13.861Z,0.77
2023-09-28T04:54:12.813Z,0.77
2023-09-28T04:55:13.800Z,0.77
2023-09-28T04:56:13.661Z,0.77
2023-09-28T04:57:13.543Z,1.53
2023-09-28T04:58:13.542Z,1.53
2023-09-28T04:59:13.711Z,2.29
2023-09-28T05:00:13.833Z,2.29
2023-09-28T05:01:17.599Z,3.06
2023-09-28T05:02:14.122Z,3.82
2023-09-28T05:03:12.894Z,4.59
2023-09-28T05:04:13.142Z,5.35
2023-09-28T05:05:13.320Z,6.12
2023-09-28T05:06:13.492Z,7.65
2023-09-28T05:07:13.668Z,9.18
2023-09-28T05:08:13.720Z,10.71
2023-09-28T05:09:14.040Z,12.24
2023-09-28T05:10:12.997Z,15.30
2023-09-28T05:11:13.128Z,18.36
2023-09-28T05:12:13.241Z,21.42
2023-09-28T05:13:13.130Z,24.48
2023-09-28T05:14:12.905Z,27.54
2023-09-28T05:15:13.010Z,33.66
2023-09-28T05:16:13.203Z,39.78
2023-09-28T05:17:13.418Z,42.84
2023-09-28T05:18:13.531Z,48.96
2023-09-28T05:19:13.446Z,55.08
2023-09-28T05:20:13.575Z,61.20
2023-09-28T05:21:13.738Z,73.44
2023-09-28T05:22:13.758Z,85.68
2023-09-28T05:23:14.066Z,91.80
2023-09-28T05:24:13.092Z,97.92
2023-09-28T05:25:13.212Z,110.16
2023-09-28T05:26:13.110Z,122.40
2023-09-28T05:27:13.185Z,134.64
2023-09-28T05:28:13.335Z,159.12
2023-09-28T05:29:13.297Z,159.12
2023-09-28T05:30:13.418Z,171.36
2023-09-28T05:31:13.418Z,195.84
2023-09-28T05:32:13.993Z,195.84
2023-09-28T05:33:12.985Z,195.84
2023-09-28T05:34:13.075Z,220.32
2023-09-28T05:35:13.366Z,244.80
2023-09-28T05:36:13.269Z,244.80
2023-09-28T05:37:13.451Z,269.28
2023-09-28T05:38:13.507Z,293.76
2023-09-28T05:39:13.364Z,293.76
2023-09-28T05:40:13.405Z,318.24
2023-09-28T05:41:13.647Z,342.72
2023-09-28T05:42:13.625Z,367.20
2023-09-28T05:43:13.925Z,391.68
2023-09-28T05:44:14.389Z,391.68
2023-09-28T05:45:14.064Z,440.64
2023-09-28T05:46:12.917Z,440.64
2023-09-28T05:47:13.066Z,489.60
2023-09-28T05:48:13.118Z,489.60
2023-09-28T05:49:12.964Z,538.56
2023-09-28T05:50:13.060Z,538.56
2023-09-28T05:51:13.440Z,587.52
2023-09-28T05:52:13.309Z,636.48
2023-09-28T05:53:13.217Z,685.44
2023-09-28T05:54:13.066Z,685.44
2023-09-28T05:55:13.165Z,685.44
2023-09-28T05:56:13.340Z,734.40
2023-09-28T05:57:13.362Z,783.36
2023-09-28T05:58:13.332Z,783.36
2023-09-28T05:59:13.243Z,881.28
2023-09-28T06:00:13.149Z,881.28
2023-09-28T06:01:13.394Z,881.28
2023-09-28T06:02:13.515Z,979.20
2023-09-28T06:03:13.598Z,979.20
2023-09-28T06:04:13.390Z,979.20
2023-09-28T06:05:13.303Z,1175.04
2023-09-28T06:06:14.419Z,1175.04
2023-09-28T06:07:13.411Z,1272.96
2023-09-28T06:08:13.444Z,1272.96
2023-09-28T06:09:13.496Z,1272.96
2023-09-28T06:10:13.537Z,1272.96
2023-09-28T06:11:13.428Z,1370.88
2023-09-28T06:12:13.527Z,1370.88
2023-09-28T06:13:13.528Z,1370.88
2023-09-28T06:14:13.833Z,1468.80
2023-09-28T06:15:13.949Z,1468.80
2023-09-28T06:16:13.010Z,1566.72
2023-09-28T06:17:13.048Z,1566.72
2023-09-28T06:18:13.044Z,1566.72
2023-09-28T06:19:13.142Z,1566.72
2023-09-28T06:20:13.442Z,1566.72
2023-09-28T06:21:13.451Z,1566.72
2023-09-28T06:22:13.401Z,1566.72
2023-09-28T06:23:13.617Z,1566.72
2023-09-28T06:24:13.678Z,1566.72
2023-09-28T06:25:13.755Z,1566.72
2023-09-28T06:26:19.874Z,1762.56
2023-09-28T06:27:13.253Z,1566.72
2023-09-28T06:28:13.232Z,1762.56
2023-09-28T06:29:13.347Z,1762.56
2023-09-28T06:30:13.815Z,1958.40
2023-09-28T06:31:13.860Z,2350.08
2023-09-28T06:32:13.876Z,2350.08
2023-09-28T06:33:12.947Z,2350.08
2023-09-28T06:34:12.764Z,2350.08
2023-09-28T06:35:13.696Z,2154.24
2023-09-28T06:36:23.013Z,2154.24
2023-09-28T06:37:13.854Z,2154.24
2023-09-28T06:38:13.675Z,2350.08
2023-09-28T06:39:13.434Z,2350.08
2023-09-28T06:40:13.717Z,2154.24
2023-09-28T06:41:13.752Z,2350.08
2023-09-28T06:42:28.627Z,2350.08
2023-09-28T06:43:13.756Z,2350.08
2023-09-28T06:44:13.771Z,2545.92
2023-09-28T06:45:13.615Z,2741.76
2023-09-28T06:46:13.904Z,2741.76
2023-09-28T06:47:12.934Z,2937.60
2023-09-28T06:48:20.015Z,2937.60
2023-09-28T06:49:13.051Z,2937.60
2023-09-28T06:50:12.890Z,3133.44
2023-09-28T06:51:13.909Z,2937.60
2023-09-28T06:52:13.200Z,2545.92
2023-09-28T06:53:13.466Z,2545.92
2023-09-28T06:54:13.586Z,2741.76
2023-09-28T06:55:13.595Z,2741.76
2023-09-28T06:56:15.096Z,2937.60
2023-09-28T06:57:13.397Z,2741.76
2023-09-28T06:58:13.584Z,2741.76
2023-09-28T07:00:10.001Z,2937.60
2023-09-28T07:00:18.647Z,2937.60
2023-09-28T07:01:13.521Z,2937.60
2023-09-28T07:02:45.781Z,2937.60
2023-09-28T07:03:14.657Z,3133.44
2023-09-28T07:05:24.546Z,3133.44
2023-09-28T07:06:13.417Z,3133.44
2023-09-28T07:08:07.085Z,3525.12
2023-09-28T07:08:24.393Z,3525.12
2023-09-28T07:09:13.450Z,3525.12
2023-09-28T07:10:49.028Z,3525.12
2023-09-28T07:11:12.983Z,3525.12
2023-09-28T07:12:12.846Z,3916.80
2023-09-28T07:13:14.070Z,3916.80
2023-09-28T07:14:13.197Z,3916.80
2023-09-28T07:15:51.170Z,3916.80
2023-09-28T07:16:13.841Z,3916.80
2023-09-28T07:17:19.019Z,3916.80
2023-09-28T07:18:13.226Z,3916.80
2023-09-28T07:19:13.866Z,4308.48
2023-09-28T07:20:13.614Z,3916.80
2023-09-28T07:21:13.738Z,3916.80
2023-09-28T07:22:13.791Z,4308.48
2023-09-28T07:23:13.566Z,3916.80
2023-09-28T07:24:19.530Z,4308.48
2023-09-28T07:25:13.543Z,4308.48
2023-09-28T07:26:13.621Z,4308.48
2023-09-28T07:27:13.418Z,4308.48
2023-09-28T07:28:13.402Z,4308.48
2023-09-28T07:29:13.537Z,3916.80
2023-09-28T07:30:13.552Z,4308.48
2023-09-28T07:31:13.866Z,4308.48
2023-09-28T07:32:13.969Z,3916.80
2023-09-28T07:33:13.439Z,4308.48
2023-09-28T07:34:13.507Z,4308.48
2023-09-28T07:35:13.709Z,3916.80
2023-09-28T07:36:13.859Z,4308.48
2023-09-28T07:37:13.894Z,4308.48
2023-09-28T07:38:14.145Z,3916.80
2023-09-28T07:39:13.138Z,3916.80
2023-09-28T07:40:12.946Z,3916.80
2023-09-28T07:41:12.991Z,3916.80
2023-09-28T07:42:15.015Z,4308.48
2023-09-28T07:43:13.184Z,4308.48
2023-09-28T07:44:13.302Z,4308.48
2023-09-28T07:45:13.325Z,4308.48
2023-09-28T07:46:13.764Z,4308.48
2023-09-28T07:47:14.034Z,4308.48
2023-09-28T07:48:18.141Z,4700.16
2023-09-28T07:50:17.265Z,4700.16
2023-09-28T07:51:13.916Z,4700.16
2023-09-28T07:53:13.761Z,4700.16
2023-09-28T07:54:13.684Z,5091.84
2023-09-28T07:55:13.975Z,5091.84
2023-09-28T07:56:12.942Z,5091.84
2023-09-28T07:57:28.259Z,5091.84
2023-09-28T07:59:13.598Z,5091.84
2023-09-28T08:00:13.680Z,5091.84
2023-09-28T08:01:13.697Z,5483.52
2023-09-28T08:02:14.585Z,5875.20
2023-09-28T08:03:13.839Z,6266.88
2023-09-28T08:04:12.873Z,5875.20
2023-09-28T08:05:13.158Z,5483.52
2023-09-28T08:06:18.339Z,5483.52
2023-09-28T08:07:13.482Z,5875.20
2023-09-28T08:08:16.953Z,5483.52
2023-09-28T08:09:13.375Z,5091.84
2023-09-28T08:10:13.302Z,5091.84
2023-09-28T08:11:13.328Z,5483.52
2023-09-28T08:12:13.342Z,5875.20
2023-09-28T08:13:14.529Z,5875.20
2023-09-28T08:14:15.830Z,5483.52
2023-09-28T08:15:23.588Z,5483.52
2023-09-28T08:16:13.396Z,5483.52
2023-09-28T08:17:13.248Z,5875.20
2023-09-28T08:18:13.332Z,5875.20
2023-09-28T08:19:13.371Z,6266.88
2023-09-28T08:20:13.531Z,6266.88
2023-09-28T08:21:13.581Z,6266.88
2023-09-28T08:22:13.688Z,7050.24
2023-09-28T08:23:13.823Z,7050.24
2023-09-28T08:24:13.712Z,7050.24
2023-09-28T08:25:13.902Z,7050.24
2023-09-28T08:26:13.213Z,6266.88
2023-09-28T08:27:13.230Z,6266.88
2023-09-28T08:28:13.060Z,6266.88
2023-09-28T08:29:13.025Z,6266.88
2023-09-28T08:30:13.258Z,6266.88
2023-09-28T08:31:13.464Z,6266.88
2023-09-28T08:32:13.332Z,6266.88
2023-09-28T08:33:13.469Z,7050.24
2023-09-28T08:34:17.189Z,7050.24
2023-09-28T08:35:13.257Z,7833.60
2023-09-28T08:36:13.375Z,7833.60
2023-09-28T08:37:13.473Z,7833.60
2023-09-28T08:38:15.109Z,7833.60
2023-09-28T08:39:12.975Z,8616.96
2023-09-28T08:40:12.888Z,8616.96
2023-09-28T08:41:13.058Z,7833.60
2023-09-28T08:42:13.049Z,7833.60
2023-09-28T08:43:13.267Z,7050.24
2023-09-28T08:44:13.117Z,7833.60
2023-09-28T08:45:13.483Z,9400.32
2023-09-28T08:46:13.537Z,8616.96
2023-09-28T08:47:13.815Z,11750.40
2023-09-28T08:48:13.699Z,14100.48
2023-09-28T08:49:13.621Z,15667.20
2023-09-28T08:50:13.765Z,15667.20
2023-09-28T08:51:12.875Z,15667.20
2023-09-28T08:52:13.042Z,17233.92
2023-09-28T08:53:13.216Z,17233.92
2023-09-28T08:54:13.275Z,17233.92
2023-09-28T08:55:13.280Z,17233.92
2023-09-28T08:56:13.125Z,17233.92
2023-09-28T08:57:13.455Z,12533.76
2023-09-28T08:58:13.550Z,17233.92
2023-09-28T08:59:13.878Z,18800.64
2023-09-28T09:00:12.973Z,18800.64
2023-09-28T09:01:13.256Z,17233.92
2023-09-28T09:02:13.159Z,10967.04
2023-09-28T09:03:13.395Z,18800.64
2023-09-28T09:04:13.597Z,12533.76
2023-09-28T09:05:18.701Z,9400.32
2023-09-28T09:06:13.928Z,10183.68
2023-09-28T09:07:13.196Z,10967.04
2023-09-28T09:08:13.605Z,15667.20
2023-09-28T09:09:13.816Z,10967.04
2023-09-28T09:10:12.813Z,10183.68
2023-09-28T09:11:14.789Z,9400.32
2023-09-28T09:12:12.943Z,9400.32
2023-09-28T09:13:12.930Z,8616.96
2023-09-28T09:14:13.059Z,8616.96
2023-09-28T09:15:13.138Z,7050.24
2023-09-28T09:16:13.046Z,7050.24
2023-09-28T09:17:13.524Z,7050.24
2023-09-28T09:18:13.823Z,7050.24
2023-09-28T09:19:13.867Z,7833.60
2023-09-28T09:20:12.908Z,7833.60
2023-09-28T09:21:12.843Z,7833.60
2023-09-28T09:22:13.802Z,7833.60
2023-09-28T09:23:12.942Z,7050.24
2023-09-28T09:24:13.101Z,7833.60
2023-09-28T09:25:14.043Z,7050.24
2023-09-28T09:26:13.113Z,7833.60
2023-09-28T09:27:13.277Z,7050.24
2023-09-28T09:28:13.075Z,7833.60
2023-09-28T09:29:13.009Z,7833.60
2023-09-28T09:30:13.207Z,7050.24
2023-09-28T09:31:13.173Z,7833.60
2023-09-28T09:32:13.350Z,7050.24
2023-09-28T09:33:13.360Z,7050.24
2023-09-28T09:34:13.411Z,7050.24
2023-09-28T09:35:13.746Z,7050.24
2023-09-28T09:36:12.974Z,7050.24
2023-09-28T09:37:13.012Z,7050.24
2023-09-28T09:38:13.049Z,7050.24
2023-09-28T09:39:12.985Z,7833.60
2023-09-28T09:40:13.065Z,7833.60
2023-09-28T09:41:13.014Z,7833.60
2023-09-28T09:42:12.818Z,7833.60
2023-09-28T09:43:13.806Z,7833.60
2023-09-28T09:44:13.777Z,7833.60
2023-09-28T09:45:13.890Z,7833.60
2023-09-28T09:46:12.849Z,7050.24
2023-09-28T09:47:14.012Z,7050.24
2023-09-28T09:48:12.976Z,5483.52
2023-09-28T09:49:12.967Z,5483.52
2023-09-28T09:50:12.994Z,5483.52
2023-09-28T09:51:13.447Z,5483.52
2023-09-28T09:52:13.708Z,5875.20
2023-09-28T09:53:14.532Z,6266.88
2023-09-28T09:54:13.869Z,7050.24
2023-09-28T09:55:13.685Z,7050.24
2023-09-28T09:56:14.011Z,7833.60
2023-09-28T09:57:13.301Z,7833.60
2023-09-28T09:58:13.582Z,7050.24
2023-09-28T09:59:13.825Z,7050.24
2023-09-28T10:00:13.788Z,7833.60
2023-09-28T10:01:13.851Z,7833.60
2023-09-28T10:02:12.781Z,7833.60
2023-09-28T10:03:13.854Z,8616.96
2023-09-28T10:04:13.981Z,8616.96
2023-09-28T10:05:13.052Z,9400.32
2023-09-28T10:06:13.014Z,8616.96
2023-09-28T10:07:13.174Z,8616.96
2023-09-28T10:08:13.098Z,8616.96
2023-09-28T10:09:13.200Z,8616.96
2023-09-28T10:10:13.209Z,8616.96
2023-09-28T10:11:13.304Z,8616.96
2023-09-28T10:12:13.587Z,7833.60
2023-09-28T10:13:13.800Z,7833.60
2023-09-28T10:14:14.015Z,6266.88
2023-09-28T10:15:12.980Z,6266.88
2023-09-28T10:16:12.765Z,5875.20
2023-09-28T10:17:12.919Z,5875.20
2023-09-28T10:18:13.006Z,5875.20
2023-09-28T10:19:12.954Z,5875.20
2023-09-28T10:20:13.307Z,5091.84
2023-09-28T10:21:13.514Z,5091.84
2023-09-28T10:22:13.393Z,5875.20
2023-09-28T10:23:13.716Z,7050.24
2023-09-28T10:24:13.692Z,7050.24
2023-09-28T10:25:13.770Z,7833.60
2023-09-28T10:26:13.867Z,9400.32
2023-09-28T10:27:13.293Z,9400.32
2023-09-28T10:28:13.346Z,10183.68
2023-09-28T10:29:13.622Z,9400.32
2023-09-28T10:30:13.827Z,9400.32
2023-09-28T10:31:15.476Z,8616.96
2023-09-28T10:32:13.725Z,8616.96
2023-09-28T10:33:13.897Z,8616.96
2023-09-28T10:34:12.954Z,7833.60
2023-09-28T10:35:12.930Z,10183.68
2023-09-28T10:36:13.086Z,11750.40
2023-09-28T10:37:13.017Z,12533.76
2023-09-28T10:38:13.276Z,12533.76
2023-09-28T10:39:13.124Z,12533.76
2023-09-28T10:40:13.370Z,11750.40
2023-09-28T10:41:13.508Z,10967.04
2023-09-28T10:42:13.513Z,10967.04
2023-09-28T10:43:13.409Z,10967.04
2023-09-28T10:44:13.100Z,11750.40
2023-09-28T10:45:13.061Z,12533.76
2023-09-28T10:46:12.957Z,12533.76
2023-09-28T10:47:13.133Z,11750.40
2023-09-28T10:48:13.602Z,11750.40
2023-09-28T10:49:13.780Z,11750.40
2023-09-28T10:50:13.621Z,11750.40
2023-09-28T10:51:13.555Z,11750.40
2023-09-28T10:52:13.585Z,12533.76
2023-09-28T10:53:13.705Z,12533.76
2023-09-28T10:54:13.684Z,12533.76
2023-09-28T10:55:13.591Z,14100.48
2023-09-28T10:56:13.759Z,12533.76
2023-09-28T10:57:13.811Z,12533.76
2023-09-28T10:58:14.533Z,12533.76
2023-09-28T10:59:13.533Z,12533.76
2023-09-28T11:00:13.654Z,12533.76
2023-09-28T11:01:12.706Z,12533.76
2023-09-28T11:02:13.763Z,12533.76
2023-09-28T11:03:14.050Z,15667.20
2023-09-28T11:04:13.246Z,15667.20
2023-09-28T11:05:13.712Z,17233.92
2023-09-28T11:06:13.410Z,21934.08
2023-09-28T11:07:13.543Z,23500.80
2023-09-28T11:08:13.781Z,21934.08
2023-09-28T11:09:14.069Z,21934.08
2023-09-28T11:10:13.275Z,17233.92
2023-09-28T11:11:13.647Z,14100.48
2023-09-28T11:12:13.683Z,23500.80
2023-09-28T11:13:13.721Z,12533.76
2023-09-28T11:14:13.802Z,14100.48
2023-09-28T11:15:13.731Z,14100.48
2023-09-28T11:16:13.917Z,12533.76
2023-09-28T11:17:13.043Z,12533.76
2023-09-28T11:18:13.304Z,12533.76
2023-09-28T11:19:13.547Z,14100.48
2023-09-28T11:20:13.806Z,21934.08
2023-09-28T11:21:12.890Z,14100.48
2023-09-28T11:22:12.835Z,10967.04
2023-09-28T11:23:14.181Z,21934.08
2023-09-28T11:24:13.342Z,10183.68
2023-09-28T11:25:17.852Z,8616.96
2023-09-28T11:26:12.869Z,9400.32
2023-09-28T11:27:12.873Z,10183.68
2023-09-28T11:28:13.974Z,12533.76
2023-09-28T11:29:13.094Z,23500.80
2023-09-28T11:30:12.969Z,14100.48
2023-09-28T11:31:12.917Z,12533.76
2023-09-28T11:32:13.176Z,11750.40
2023-09-28T11:33:13.272Z,14100.48
2023-09-28T11:34:12.996Z,12533.76
2023-09-28T11:35:13.004Z,12533.76
2023-09-28T11:36:13.004Z,20367.36
2023-09-28T11:37:12.908Z,14100.48
2023-09-28T11:38:12.736Z,14100.48
2023-09-28T11:39:13.751Z,12533.76
2023-09-28T11:40:14.085Z,12533.76
2023-09-28T11:41:13.103Z,14100.48
2023-09-28T11:42:13.299Z,25067.52
2023-09-28T11:43:13.383Z,12533.76
2023-09-28T11:44:13.774Z,11750.40
2023-09-28T11:45:13.727Z,10967.04
2023-09-28T11:46:13.674Z,11750.40
2023-09-28T11:47:13.744Z,11750.40
2023-09-28T11:48:13.920Z,11750.40
2023-09-28T11:49:12.943Z,11750.40
2023-09-28T11:50:13.223Z,12533.76
2023-09-28T11:51:13.081Z,11750.40
2023-09-28T11:52:12.956Z,10967.04
2023-09-28T11:53:13.111Z,10967.04
2023-09-28T11:54:13.129Z,10183.68
2023-09-28T11:55:12.946Z,9400.32
2023-09-28T11:56:13.014Z,8616.96
2023-09-28T11:57:13.326Z,8616.96
2023-09-28T11:58:13.375Z,9400.32
2023-09-28T11:59:13.926Z,10967.04
2023-09-28T12:00:13.148Z,12533.76
2023-09-28T12:01:13.342Z,12533.76
2023-09-28T12:02:13.396Z,12533.76
2023-09-28T12:03:13.775Z,10183.68
2023-09-28T12:04:13.937Z,10183.68
2023-09-28T12:05:13.174Z,9400.32
2023-09-28T12:06:13.353Z,9400.32
2023-09-28T12:07:13.267Z,10183.68
2023-09-28T12:08:13.244Z,11750.40
2023-09-28T12:09:13.224Z,11750.40
2023-09-28T12:10:13.339Z,10967.04
2023-09-28T12:11:13.479Z,10183.68
2023-09-28T12:12:13.381Z,10183.68
2023-09-28T12:13:13.230Z,10967.04
2023-09-28T12:14:13.274Z,10967.04
2023-09-28T12:15:13.458Z,12533.76
2023-09-28T12:16:13.437Z,14100.48
2023-09-28T12:17:13.619Z,12533.76
2023-09-28T12:18:13.564Z,11750.40
2023-09-28T12:19:13.609Z,10183.68
2023-09-28T12:20:13.655Z,9400.32
2023-09-28T12:21:13.807Z,9400.32
2023-09-28T12:22:13.661Z,8616.96
2023-09-28T12:23:13.620Z,8616.96
2023-09-28T12:24:13.594Z,10183.68
2023-09-28T12:25:13.623Z,11750.40
2023-09-28T12:26:13.578Z,12533.76
2023-09-28T12:27:13.688Z,12533.76
2023-09-28T12:28:13.566Z,10967.04
2023-09-28T12:29:13.434Z,9400.32
2023-09-28T12:30:13.539Z,9400.32
2023-09-28T12:31:13.752Z,9400.32
2023-09-28T12:32:13.818Z,9400.32
2023-09-28T12:33:13.813Z,10967.04
2023-09-28T12:34:13.640Z,10967.04
2023-09-28T12:35:13.712Z,10183.68